createdAt,value
2024-05-09T00:00:30.366Z,11.74
2024-05-09T00:03:04.745Z,11.72
2024-05-09T00:05:31.137Z,11.82
2024-05-09T00:07:57.390Z,11.74
2024-05-09T00:10:32.630Z,11.69
2024-05-09T00:13:03.388Z,11.66
2024-05-09T00:15:29.585Z,11.63
2024-05-09T00:17:55.940Z,11.58
2024-05-09T00:20:28.514Z,11.61
2024-05-09T00:23:02.425Z,11.53
2024-05-09T00:25:28.548Z,11.56
2024-05-09T00:27:54.715Z,11.55
2024-05-09T00:30:28.014Z,11.54
2024-05-09T00:32:59.589Z,11.65
2024-05-09T00:35:27.914Z,11.70
2024-05-09T00:37:54.205Z,11.59
2024-05-09T00:40:30.751Z,11.57
2024-05-09T00:43:04.591Z,11.46
2024-05-09T00:45:30.707Z,11.42
2024-05-09T00:47:58.178Z,11.41
2024-05-09T00:50:33.374Z,11.42
2024-05-09T00:53:05.277Z,11.41
2024-05-09T00:55:31.622Z,11.42
2024-05-09T00:57:57.748Z,11.53
2024-05-09T01:00:31.517Z,11.59
2024-05-09T01:03:05.030Z,11.40
2024-05-09T01:05:31.403Z,11.44
2024-05-09T01:07:57.641Z,11.42
2024-05-09T01:10:33.522Z,11.33
2024-05-09T01:13:02.248Z,11.39
2024-05-09T01:15:28.427Z,11.38
2024-05-09T01:17:55.010Z,11.39
2024-05-09T01:20:31.757Z,11.36
2024-05-09T01:23:16.061Z,11.39
2024-05-09T01:26:17.006Z,11.36
2024-05-09T01:28:43.469Z,11.31
2024-05-09T01:31:09.626Z,11.28
2024-05-09T01:33:35.953Z,11.34
2024-05-09T01:36:02.241Z,11.28
2024-05-09T01:38:30.660Z,11.31
2024-05-09T01:40:57.408Z,11.31
2024-05-09T01:43:23.909Z,11.31
2024-05-09T01:45:50.038Z,11.29
2024-05-09T01:48:16.345Z,11.21
2024-05-09T01:50:43.371Z,11.25
2024-05-09T01:53:11.601Z,11.25
2024-05-09T01:55:40.052Z,11.05
2024-05-09T01:58:06.343Z,11.20
2024-05-09T02:00:38.971Z,11.21
2024-05-09T02:03:09.708Z,11.12
2024-05-09T02:05:36.509Z,11.16
2024-05-09T02:08:03.288Z,11.14
2024-05-09T02:10:32.717Z,11.11
2024-05-09T02:13:01.680Z,11.00
2024-05-09T02:15:27.955Z,10.99
2024-05-09T02:17:54.486Z,10.95
2024-05-09T02:20:30.158Z,10.98
2024-05-09T02:23:02.186Z,11.06
2024-05-09T02:25:29.188Z,11.08
2024-05-09T02:27:55.433Z,11.00
2024-05-09T02:30:30.907Z,10.99
2024-05-09T02:33:05.278Z,11.03
2024-05-09T02:35:31.711Z,11.02
2024-05-09T02:37:58.002Z,11.02
2024-05-09T02:40:33.204Z,10.82
2024-05-09T02:43:03.627Z,10.80
2024-05-09T02:45:32.013Z,10.87
2024-05-09T02:47:58.733Z,10.95
2024-05-09T02:50:33.554Z,10.88
2024-05-09T02:53:04.619Z,10.81
2024-05-09T02:55:30.788Z,10.93
2024-05-09T02:57:56.998Z,10.79
2024-05-09T03:00:29.720Z,10.80
2024-05-09T03:03:06.125Z,10.86
2024-05-09T03:05:32.646Z,10.84
2024-05-09T03:07:58.897Z,10.79
2024-05-09T03:10:28.653Z,10.73
2024-05-09T03:12:55.455Z,10.77
2024-05-09T03:15:21.796Z,10.68
2024-05-09T03:17:48.435Z,10.75
2024-05-09T03:20:23.388Z,10.66
2024-05-09T03:22:52.691Z,10.57
2024-05-09T03:25:20.135Z,10.51
2024-05-09T03:27:46.268Z,10.49
2024-05-09T03:30:18.383Z,10.48
2024-05-09T03:32:48.567Z,10.43
2024-05-09T03:35:16.960Z,10.44
2024-05-09T03:37:43.130Z,10.42
2024-05-09T03:40:17.518Z,10.49
2024-05-09T03:42:46.990Z,10.41
2024-05-09T03:45:13.306Z,10.45
2024-05-09T03:47:39.788Z,10.28
2024-05-09T03:50:14.970Z,10.24
2024-05-09T03:52:46.301Z,10.32
2024-05-09T03:55:12.596Z,10.17
2024-05-09T03:57:38.750Z,10.26
2024-05-09T04:00:12.257Z,10.14
2024-05-09T04:02:47.238Z,10.10
2024-05-09T04:05:13.712Z,10.13
2024-05-09T04:07:42.107Z,10.23
2024-05-09T04:10:17.104Z,10.17
2024-05-09T04:12:49.871Z,10.12
2024-05-09T04:15:16.019Z,10.18
2024-05-09T04:17:42.334Z,10.30
2024-05-09T04:20:12.429Z,10.26
2024-05-09T04:22:44.481Z,10.18
2024-05-09T04:25:12.829Z,10.24
2024-05-09T04:27:39.015Z,10.26
2024-05-09T04:30:09.857Z,10.29
2024-05-09T04:32:38.690Z,10.27
2024-05-09T04:35:05.138Z,10.36
2024-05-09T04:37:31.332Z,10.36
2024-05-09T04:39:57.446Z,10.29
2024-05-09T04:42:25.713Z,10.44
2024-05-09T04:44:53.542Z,10.48
2024-05-09T04:47:21.095Z,10.47
2024-05-09T04:49:47.542Z,10.46
2024-05-09T04:52:14.039Z,10.56
2024-05-09T04:54:40.197Z,10.61
2024-05-09T04:57:06.489Z,10.64
2024-05-09T04:59:34.762Z,10.65
2024-05-09T05:02:01.051Z,10.60
2024-05-09T05:04:27.273Z,10.78
2024-05-09T05:06:53.482Z,10.72
2024-05-09T05:09:19.624Z,10.81
2024-05-09T05:11:45.924Z,10.84
2024-05-09T05:14:12.108Z,10.96
2024-05-09T05:16:40.378Z,11.01
2024-05-09T05:19:10.912Z,11.10
2024-05-09T05:21:38.311Z,11.17
2024-05-09T05:24:05.036Z,11.26
2024-05-09T05:26:31.864Z,11.33
2024-05-09T05:28:58.086Z,11.34
2024-05-09T05:31:24.373Z,11.42
2024-05-09T05:33:52.766Z,11.37
2024-05-09T05:36:18.956Z,11.48
2024-05-09T05:38:45.267Z,11.46
2024-05-09T05:41:11.680Z,11.62
2024-05-09T05:43:37.848Z,11.61
2024-05-09T05:46:04.336Z,11.61
2024-05-09T05:48:30.540Z,11.65
2024-05-09T05:51:01.157Z,11.66
2024-05-09T05:53:28.895Z,11.77
2024-05-09T05:55:55.196Z,11.80
2024-05-09T05:58:21.367Z,11.92
2024-05-09T06:00:47.714Z,11.96
2024-05-09T06:03:14.463Z,12.00
2024-05-09T06:05:41.286Z,12.01
2024-05-09T06:08:09.716Z,12.02
2024-05-09T06:10:39.396Z,12.06
2024-05-09T06:13:07.911Z,12.17
2024-05-09T06:15:34.202Z,12.25
2024-05-09T06:18:00.779Z,12.31
2024-05-09T06:20:34.823Z,12.30
2024-05-09T06:23:04.053Z,12.42
2024-05-09T06:25:32.535Z,12.58
2024-05-09T06:27:58.843Z,12.67
2024-05-09T06:30:30.592Z,12.70
2024-05-09T06:33:05.061Z,12.72
2024-05-09T06:35:31.799Z,12.80
2024-05-09T06:37:58.208Z,12.89
2024-05-09T06:40:29.303Z,12.98
2024-05-09T06:43:02.697Z,13.07
2024-05-09T06:45:28.870Z,13.16
2024-05-09T06:47:55.237Z,13.22
2024-05-09T06:50:24.331Z,13.31
2024-05-09T06:52:54.315Z,13.36
2024-05-09T06:55:20.461Z,13.42
2024-05-09T06:57:46.759Z,13.52
2024-05-09T07:00:22.843Z,13.61
2024-05-09T07:02:56.792Z,13.71
2024-05-09T07:05:23.246Z,13.81
2024-05-09T07:07:49.509Z,13.89
2024-05-09T07:10:22.039Z,13.99
2024-05-09T07:12:54.861Z,14.13
2024-05-09T07:15:23.051Z,14.19
2024-05-09T07:17:49.376Z,14.26
2024-05-09T07:20:23.531Z,14.30
2024-05-09T07:22:58.281Z,14.42
2024-05-09T07:25:24.412Z,14.43
2024-05-09T07:27:50.653Z,14.43
2024-05-09T07:30:23.512Z,14.42
2024-05-09T07:32:58.861Z,14.51
2024-05-09T07:35:25.284Z,14.55
2024-05-09T07:37:51.645Z,14.66
2024-05-09T07:40:28.563Z,14.72
2024-05-09T07:43:02.711Z,14.88
2024-05-09T07:45:45.203Z,14.95
2024-05-09T07:53:38.085Z,15.21
2024-05-09T07:56:04.379Z,15.30
2024-05-09T07:58:30.554Z,15.35
2024-05-09T08:00:56.802Z,15.32
2024-05-09T08:03:25.155Z,15.45
2024-05-09T08:05:51.402Z,15.52
2024-05-09T08:08:17.572Z,15.66
2024-05-09T08:10:43.968Z,15.68
2024-05-09T08:13:10.237Z,15.71
2024-05-09T08:15:36.599Z,15.80
2024-05-09T08:18:03.316Z,15.93
2024-05-09T08:20:35.161Z,16.13
2024-05-09T08:23:01.652Z,16.45
2024-05-09T08:25:28.408Z,16.45
2024-05-09T08:27:54.698Z,16.56
2024-05-09T08:30:25.476Z,16.87
2024-05-09T08:32:58.908Z,17.10
2024-05-09T08:35:25.105Z,17.35
2024-05-09T08:37:53.372Z,17.72
2024-05-09T08:40:27.897Z,18.01
2024-05-09T08:43:00.537Z,18.45
2024-05-09T08:45:26.833Z,18.77
2024-05-09T08:47:53.469Z,18.98
2024-05-09T08:50:31.463Z,19.50
2024-05-09T08:53:06.235Z,21.12
2024-05-09T08:55:32.699Z,23.28
2024-05-09T08:58:02.782Z,24.94
2024-05-09T09:00:36.333Z,26.37
2024-05-09T09:03:06.389Z,27.47
2024-05-09T09:05:37.285Z,28.15
2024-05-09T09:08:07.275Z,28.53
2024-05-09T09:10:33.797Z,29.07
2024-05-09T09:13:01.217Z,29.00
2024-05-09T09:15:27.462Z,29.47
2024-05-09T09:17:55.809Z,29.77
2024-05-09T09:20:28.757Z,30.06
2024-05-09T09:23:00.197Z,30.42
2024-05-09T09:25:28.374Z,30.70
2024-05-09T09:27:54.714Z,30.62
2024-05-09T09:30:31.871Z,31.07
2024-05-09T09:33:03.240Z,31.32
2024-05-09T09:35:29.470Z,31.65
2024-05-09T09:38:00.958Z,31.83
2024-05-09T09:40:35.822Z,32.47
2024-05-09T09:43:10.612Z,32.50
2024-05-09T09:45:37.487Z,32.40
2024-05-09T09:48:05.472Z,32.77
2024-05-09T09:50:35.401Z,33.15
2024-05-09T09:53:04.254Z,32.44
2024-05-09T09:55:33.021Z,32.68
2024-05-09T09:57:59.957Z,32.48
2024-05-09T10:00:32.446Z,32.64
2024-05-09T10:03:00.024Z,32.75
2024-05-09T10:05:27.004Z,32.88
2024-05-09T10:07:55.022Z,33.12
2024-05-09T10:10:29.875Z,33.08
2024-05-09T10:13:02.567Z,33.93
2024-05-09T10:15:29.210Z,33.67
2024-05-09T10:18:04.244Z,34.59
2024-05-09T10:20:39.339Z,35.06
2024-05-09T10:23:05.572Z,33.77
2024-05-09T10:25:31.777Z,34.22
2024-05-09T10:28:00.964Z,34.10
2024-05-09T10:30:34.005Z,34.15
2024-05-09T10:33:02.691Z,34.30
2024-05-09T10:35:31.439Z,34.12
2024-05-09T10:38:05.042Z,34.07
2024-05-09T10:40:32.040Z,33.80
2024-05-09T10:43:04.626Z,33.75
2024-05-09T10:45:34.716Z,33.73
2024-05-09T10:48:01.282Z,33.74
2024-05-09T10:50:31.842Z,33.91
2024-05-09T10:53:01.896Z,34.69
2024-05-09T10:55:28.135Z,34.38
2024-05-09T10:57:54.553Z,34.80
2024-05-09T11:00:33.717Z,34.67
2024-05-09T11:03:02.520Z,35.07
2024-05-09T11:05:29.010Z,35.38
2024-05-09T11:07:55.378Z,35.45
2024-05-09T11:10:27.743Z,35.31
2024-05-09T11:13:00.172Z,34.93
2024-05-09T11:15:37.129Z,34.28
2024-05-09T11:18:03.916Z,32.91
2024-05-09T11:20:35.318Z,31.73
2024-05-09T11:23:04.344Z,30.90
2024-05-09T11:25:30.826Z,30.11
2024-05-09T11:27:58.183Z,29.11
2024-05-09T11:30:30.042Z,30.35
2024-05-09T11:33:00.527Z,31.58
2024-05-09T11:35:26.785Z,31.71
2024-05-09T11:37:53.137Z,32.38
2024-05-09T11:40:25.325Z,33.12
2024-05-09T11:42:54.815Z,33.90
2024-05-09T11:45:21.008Z,34.16
2024-05-09T11:47:49.992Z,34.50
2024-05-09T11:50:26.890Z,34.79
2024-05-09T11:52:56.485Z,35.38
2024-05-09T11:55:26.831Z,35.33
2024-05-09T11:57:54.059Z,35.36
2024-05-09T12:00:29.164Z,35.11
2024-05-09T12:03:02.698Z,35.07
2024-05-09T12:05:31.022Z,35.42
2024-05-09T12:07:57.302Z,35.29
2024-05-09T12:10:32.077Z,35.45
2024-05-09T12:13:00.807Z,34.76
2024-05-09T12:15:26.957Z,34.29
2024-05-09T12:17:53.299Z,32.81
2024-05-09T12:20:28.646Z,31.44
2024-05-09T12:23:04.245Z,30.11
2024-05-09T12:25:30.387Z,28.98
2024-05-09T12:27:56.665Z,28.25
2024-05-09T12:30:32.765Z,27.64
2024-05-09T12:33:04.197Z,27.15
2024-05-09T12:35:30.800Z,26.71
2024-05-09T12:37:57.067Z,26.17
2024-05-09T12:40:34.304Z,26.07
2024-05-09T12:43:04.059Z,26.10
2024-05-09T12:45:30.391Z,25.53
2024-05-09T12:47:56.775Z,25.65
2024-05-09T12:50:29.900Z,25.80
2024-05-09T12:52:59.035Z,26.37
2024-05-09T12:55:28.436Z,27.25
2024-05-09T12:57:56.706Z,28.41
2024-05-09T13:00:28.216Z,29.18
2024-05-09T13:03:00.059Z,29.86
2024-05-09T13:05:26.536Z,30.15
2024-05-09T13:07:52.870Z,29.81
2024-05-09T13:10:28.722Z,29.57
2024-05-09T13:13:01.525Z,29.71
2024-05-09T13:15:29.263Z,30.18
2024-05-09T13:17:58.296Z,29.94
2024-05-09T13:20:32.353Z,31.75
2024-05-09T13:23:01.538Z,30.11
2024-05-09T13:25:27.740Z,29.87
2024-05-09T13:27:54.184Z,30.00
2024-05-09T13:30:29.706Z,30.38
2024-05-09T13:33:05.274Z,30.70
2024-05-09T13:35:31.747Z,30.59
2024-05-09T13:37:57.972Z,30.81
2024-05-09T13:40:31.810Z,30.78
2024-05-09T13:43:00.566Z,31.38
2024-05-09T13:45:28.938Z,31.13
2024-05-09T13:47:55.634Z,31.22
2024-05-09T13:50:30.954Z,31.34
2024-05-09T13:53:01.124Z,31.49
2024-05-09T13:55:27.273Z,31.29
2024-05-09T13:57:53.790Z,31.39
2024-05-09T14:00:31.966Z,31.78
2024-05-09T14:03:08.533Z,31.81
2024-05-09T14:05:35.060Z,32.27
2024-05-09T14:08:01.348Z,32.92
2024-05-09T14:12:54.847Z,33.40
2024-05-09T14:15:21.070Z,33.77
2024-05-09T14:17:47.492Z,33.17
2024-05-09T14:20:23.837Z,31.68
2024-05-09T14:22:56.810Z,30.27
2024-05-09T14:25:23.034Z,29.31
2024-05-09T14:27:49.340Z,28.93
2024-05-09T14:30:22.929Z,29.26
2024-05-09T14:32:56.965Z,29.30
2024-05-09T14:35:25.217Z,29.00
2024-05-09T14:37:51.517Z,28.86
2024-05-09T14:40:30.699Z,28.31
2024-05-09T14:43:04.255Z,27.72
2024-05-09T14:45:31.429Z,27.55
2024-05-09T14:47:57.790Z,26.92
2024-05-09T14:50:34.623Z,26.73
2024-05-09T14:53:04.539Z,26.42
2024-05-09T14:55:30.891Z,26.36
2024-05-09T14:57:57.251Z,25.96
2024-05-09T15:00:28.890Z,25.78
2024-05-09T15:02:59.604Z,25.67
2024-05-09T15:05:27.964Z,25.36
2024-05-09T15:07:56.787Z,24.95
2024-05-09T15:10:31.150Z,24.79
2024-05-09T15:13:01.304Z,24.65
2024-05-09T15:15:27.667Z,24.52
2024-05-09T15:17:54.180Z,24.31
2024-05-09T15:20:27.409Z,24.31
2024-05-09T15:23:02.657Z,24.28
2024-05-09T15:25:29.186Z,23.98
2024-05-09T15:27:55.720Z,24.10
2024-05-09T15:30:29.958Z,24.02
2024-05-09T15:32:58.680Z,23.89
2024-05-09T15:35:24.874Z,23.70
2024-05-09T15:37:51.086Z,23.73
2024-05-09T15:40:26.831Z,23.58
2024-05-09T15:43:02.085Z,23.58
2024-05-09T15:45:28.364Z,23.55
2024-05-09T15:47:54.872Z,23.58
2024-05-09T15:50:28.833Z,23.47
2024-05-09T15:53:02.800Z,23.32
2024-05-09T15:55:30.974Z,23.09
2024-05-09T15:57:57.424Z,23.07
2024-05-09T16:00:29.174Z,23.04
2024-05-09T16:03:03.248Z,23.02
2024-05-09T16:05:29.694Z,22.82
2024-05-09T16:07:56.160Z,22.91
2024-05-09T16:10:26.037Z,22.90
2024-05-09T16:13:00.444Z,22.84
2024-05-09T16:15:26.601Z,22.68
2024-05-09T16:17:53.014Z,22.59
2024-05-09T16:20:29.899Z,22.64
2024-05-09T16:23:04.648Z,22.55
2024-05-09T16:25:30.827Z,22.42
2024-05-09T16:27:57.177Z,22.35
2024-05-09T16:30:32.021Z,22.30
2024-05-09T16:33:01.771Z,22.23
2024-05-09T16:35:28.183Z,22.07
2024-05-09T16:37:54.516Z,21.96
2024-05-09T16:40:29.367Z,22.02
2024-05-09T16:43:02.626Z,21.86
2024-05-09T16:45:30.957Z,21.79
2024-05-09T16:47:58.323Z,21.69
2024-05-09T16:50:29.501Z,21.72
2024-05-09T16:52:59.185Z,21.59
2024-05-09T16:55:25.351Z,21.56
2024-05-09T16:57:51.628Z,21.57
2024-05-09T17:00:22.670Z,21.63
2024-05-09T17:02:59.662Z,21.53
2024-05-09T17:05:25.995Z,21.65
2024-05-09T17:07:52.343Z,21.55
2024-05-09T17:10:26.628Z,21.59
2024-05-09T17:12:58.408Z,21.66
2024-05-09T17:15:24.587Z,21.72
2024-05-09T17:17:50.869Z,21.67
2024-05-09T17:20:29.253Z,21.77
2024-05-09T17:23:01.234Z,21.80
2024-05-09T17:25:27.529Z,21.85
2024-05-09T17:27:53.916Z,21.71
2024-05-09T17:30:28.658Z,21.61
2024-05-09T17:33:00.673Z,21.68
2024-05-09T17:35:29.061Z,21.66
2024-05-09T17:37:55.466Z,21.57
2024-05-09T17:40:30.707Z,21.54
2024-05-09T17:43:00.938Z,21.40
2024-05-09T17:45:27.131Z,21.25
2024-05-09T17:47:53.740Z,21.08
2024-05-09T17:50:27.426Z,20.95
2024-05-09T17:53:02.027Z,20.80
2024-05-09T17:55:28.279Z,20.74
2024-05-09T17:57:54.702Z,20.69
2024-05-09T18:00:29.227Z,20.70
2024-05-09T18:03:03.694Z,20.54
2024-05-09T18:05:30.143Z,20.45
2024-05-09T18:07:56.701Z,20.37
2024-05-09T18:10:32.789Z,20.25
2024-05-09T18:13:03.739Z,20.28
2024-05-09T18:15:29.984Z,20.19
2024-05-09T18:17:56.537Z,20.02
2024-05-09T18:20:32.743Z,20.01
2024-05-09T18:23:07.285Z,20.03
2024-05-09T18:25:35.619Z,19.97
2024-05-09T18:28:02.331Z,19.83
2024-05-09T18:30:34.378Z,19.77
2024-05-09T18:33:03.123Z,19.68
2024-05-09T18:35:29.503Z,19.65
2024-05-09T18:37:55.785Z,19.53
2024-05-09T18:40:31.183Z,19.47
2024-05-09T18:43:05.501Z,19.42
2024-05-09T18:45:33.175Z,19.25
2024-05-09T18:47:59.798Z,19.32
2024-05-09T18:50:34.341Z,19.27
2024-05-09T18:53:04.833Z,19.18
2024-05-09T18:55:31.006Z,19.02
2024-05-09T18:57:57.342Z,19.01
2024-05-09T19:00:33.824Z,18.89
2024-05-09T19:03:03.979Z,18.89
2024-05-09T19:05:30.588Z,18.73
2024-05-09T19:07:57.156Z,18.69
2024-05-09T19:10:26.391Z,18.63
2024-05-09T19:12:58.484Z,18.52
2024-05-09T19:15:26.714Z,18.55
2024-05-09T19:17:53.418Z,18.38
2024-05-09T19:20:25.504Z,18.29
2024-05-09T19:22:58.076Z,18.23
2024-05-09T19:25:24.241Z,18.05
2024-05-09T19:27:50.589Z,18.02
2024-05-09T19:30:25.340Z,17.97
2024-05-09T19:33:02.650Z,17.99
2024-05-09T19:35:28.887Z,17.86
2024-05-09T19:37:55.347Z,17.80
2024-05-09T19:40:28.886Z,17.81
2024-05-09T19:42:58.120Z,17.58
2024-05-09T19:45:24.279Z,17.69
2024-05-09T19:47:50.671Z,17.51
2024-05-09T19:50:26.702Z,17.55
2024-05-09T19:52:59.179Z,17.48
2024-05-09T19:55:25.353Z,17.44
2024-05-09T19:57:51.530Z,17.50
2024-05-09T20:00:22.380Z,17.37
2024-05-09T20:02:55.436Z,17.19
2024-05-09T20:05:23.949Z,17.11
2024-05-09T20:07:50.224Z,17.01
2024-05-09T20:10:23.456Z,16.96
2024-05-09T20:12:52.900Z,16.73
2024-05-09T20:15:19.079Z,16.68
2024-05-09T20:17:45.361Z,16.70
2024-05-09T20:20:20.289Z,16.61
2024-05-09T20:22:56.372Z,16.60
2024-05-09T20:25:22.547Z,16.59
2024-05-09T20:27:48.845Z,16.55
2024-05-09T20:30:24.639Z,16.43
2024-05-09T20:32:55.120Z,16.39
2024-05-09T20:35:21.355Z,16.33
2024-05-09T20:37:47.538Z,16.33
2024-05-09T20:40:21.871Z,16.33
2024-05-09T20:42:55.198Z,16.23
2024-05-09T20:45:21.361Z,16.18
2024-05-09T20:47:48.792Z,16.01
2024-05-09T20:50:23.790Z,16.12
2024-05-09T20:52:58.782Z,16.01
2024-05-09T20:55:26.982Z,15.95
2024-05-09T20:57:53.201Z,15.82
2024-05-09T21:00:25.910Z,15.83
2024-05-09T21:03:00.236Z,15.66
2024-05-09T21:05:26.511Z,15.75
2024-05-09T21:07:52.808Z,15.80
2024-05-09T21:10:22.542Z,15.63
2024-05-09T21:12:51.298Z,15.51
2024-05-09T21:15:17.440Z,15.42
2024-05-09T21:17:43.760Z,15.40
2024-05-09T21:20:16.905Z,15.28
2024-05-09T21:22:46.369Z,15.25
2024-05-09T21:25:12.871Z,15.18
2024-05-09T21:27:39.258Z,15.12
2024-05-09T21:30:13.204Z,15.21
2024-05-09T21:32:45.210Z,15.14
2024-05-09T21:35:11.522Z,15.06
2024-05-09T21:37:37.725Z,15.03
2024-05-09T21:40:09.178Z,15.02
2024-05-09T21:42:37.643Z,15.02
2024-05-09T21:45:04.533Z,15.04
2024-05-09T21:47:33.467Z,15.00
2024-05-09T21:49:59.631Z,14.99
2024-05-09T21:52:25.959Z,14.93
2024-05-09T21:54:52.121Z,14.91
2024-05-09T21:57:18.371Z,14.91
2024-05-09T21:59:44.548Z,14.91
2024-05-09T22:02:11.704Z,14.83
2024-05-09T22:04:40.965Z,14.84
2024-05-09T22:07:07.312Z,14.78
2024-05-09T22:09:33.502Z,14.83
2024-05-09T22:11:59.838Z,14.77
2024-05-09T22:14:26.023Z,14.69
2024-05-09T22:16:52.242Z,14.67
2024-05-09T22:19:18.499Z,14.70
2024-05-09T22:21:46.745Z,14.61
2024-05-09T22:24:12.897Z,14.56
2024-05-09T22:26:39.126Z,14.50
2024-05-09T22:29:05.258Z,14.42
2024-05-09T22:31:31.470Z,14.47
2024-05-09T22:33:57.936Z,14.38
2024-05-09T22:36:24.311Z,14.33
2024-05-09T22:38:52.448Z,14.26
2024-05-09T22:41:18.709Z,14.21
2024-05-09T22:43:44.890Z,14.18
2024-05-09T22:46:11.174Z,14.20
2024-05-09T22:48:37.488Z,14.22
2024-05-09T22:51:04.256Z,14.22
2024-05-09T22:53:30.386Z,14.23
2024-05-09T22:55:58.563Z,14.28
2024-05-09T22:58:24.823Z,14.14
2024-05-09T23:00:51.287Z,14.16
2024-05-09T23:03:17.672Z,14.17
2024-05-09T23:05:43.913Z,14.20
2024-05-09T23:08:10.290Z,14.19
2024-05-09T23:10:37.987Z,14.09
2024-05-09T23:13:07.810Z,14.13
2024-05-09T23:15:35.311Z,14.14
2024-05-09T23:18:01.619Z,14.10
2024-05-09T23:20:36.273Z,13.99
2024-05-09T23:23:05.294Z,13.99
2024-05-09T23:25:31.483Z,13.94
2024-05-09T23:27:57.718Z,13.89
2024-05-09T23:30:34.186Z,13.92
2024-05-09T23:33:05.449Z,13.83
2024-05-09T23:35:31.802Z,13.76
2024-05-09T23:37:58.039Z,13.73
2024-05-09T23:40:34.626Z,13.60
2024-05-09T23:43:04.835Z,13.54
2024-05-09T23:45:33.163Z,13.58
2024-05-09T23:47:59.643Z,13.64
2024-05-09T23:50:33.622Z,13.65
2024-05-09T23:53:03.053Z,13.71
2024-05-09T23:55:29.247Z,13.74
2024-05-09T23:57:55.586Z,13.75
